Tiptonville, Tennessee
Current Conditions -  °F | °C
As of 12:55 PM on Sunday 23 Nov 2014 (Local Time) from KDYR Reporting Station
Overcast Overcast  
Wind Chill: 57°   Ceiling: 800
Heat Index: 57°   Visibility: 9mi
Dew Point: 46°   Wind: 8mph
Humidity: 67%   Direction: 110°ESE
Pressure: 29.46"   Gusts: NA
Location:  36.38°N, 89.47°W
Report Text: KDYR 231855Z 11007KT 9SM BKN008 BKN013 OVC019 14/08 A2946 RMK AO1
Loading
Personal Weather Stations






























Interactive Weather Map New forecast layout! Learn more

10-Day Weather Forecast

Advertisements
Track Severe Weather on mobile